LDZALQSA

Guest
Details From LDZA - Zagreb
To LQSA - Sarajevo
Flight Number -
Tags Standard
Created
Modified
Stats Distance 155 nm / 288 km
Max Altitude 24,500 ft / 7,468 m
Waypoints 9
Social Downloads 0
Likes 0
Share VATSIM

Download

Looking for another format? Having issues loading an existing format? Contact us
Advertisement - Login to hide

Notes

None

Route

LDZA TEBLI +44.97_+016.80 KOMAR IDASI +44.44_+017.17 SOLGU GILUK LQSA

ID Type Via Altitude Latitude Longitude Leg Dist Tot Dist Heading (true) Name
O LDZA APT - 353 ft / 108 m 45.74189˚ 16.06720˚ - 0 nm - Zagreb
TEBLI FIX - 18,065 ft / 5,506 m 45.20139˚ 16.67583˚ 41 nm 41 nm 141° / 142° -
+44.97_+016.80 DME - 24,500 ft / 7,468 m 44.96640˚ 16.79718˚ 15 nm 56 nm 160° / 160° -
KOMAR FIX - 24,500 ft / 7,468 m 44.95806˚ 16.80417˚ 0 nm 56 nm 149° / 149° -
IDASI FIX - 24,500 ft / 7,468 m 44.47028˚ 17.10528˚ 31 nm 88 nm 156° / 156° -
+44.44_+017.17 DME - 24,500 ft / 7,468 m 44.43898˚ 17.16635˚ 3 nm 92 nm 126° / 126° -
SOLGU FIX - 13,948 ft / 4,251 m 44.11667˚ 17.66667˚ 28 nm 121 nm 132° / 132° -
GILUK FIX - 5,308 ft / 1,618 m 43.86593˚ 18.10468˚ 24 nm 145 nm 128° / 129° -
O LQSA APT - 1,708 ft / 521 m 43.82460˚ 18.33150˚ 10 nm 155 nm 104° / 104° Sarajevo

Altitude Profile

Advertisement - Login to hide

LDZA

Details ICAO LDZA (ZAG)
Name Zagreb
Region Croatia
Timezone Europe/Zagreb (UTC+1.0)
Stats Elevation 353 ft / 108 m (AMSL)
Location 45.741890° 16.067200°
Runways 1
Magnetic Variation 3.958° E

METAR

LDZA 131500Z 14003KT 100V200 9999 SCT020 OVC030 04/01 Q1018 NOSIG

Decode

TAF

TAF LDZA 131125Z 1312/1412 VRB02KT 9999 SCT020 TX08/1411Z TN01/1400Z BECMG 1318/1320 3000 BR PROB40 1320/1402 0100 FZFG VV001 BECMG 1402/1404 23008KT CAVOK

Decode

Departure Runways

ID Width Length Bearing (true) Bearing (mag) Surface Threshold Offset Overrun Length
05 148 ft / 45 m 10,659 ft / 3,249 m 46.69° 42.73° Asphalt 0 ft / 0 m 195 ft / 59 m
23 148 ft / 45 m 10,659 ft / 3,249 m 226.71° 222.75° Asphalt 0 ft / 0 m 195 ft / 59 m

LQSA

Details ICAO LQSA (SJJ)
Name Sarajevo
Region Bosnia and Herzegovinia
Timezone Europe/Sarajevo (UTC+1.0)
Stats Elevation 1,708 ft / 521 m (AMSL)
Location 43.824597° 18.331500°
Runways 1
Magnetic Variation 4.222° E

METAR

LQSA 131500Z 11008KT 7000 RA FEW010 BKN035 OVC050 05/04 Q1016 NOSIG

Decode

TAF

Not found

Destination Runways

ID Width Length Bearing (true) Bearing (mag) Surface Threshold Offset Overrun Length
12 150 ft / 46 m 8,519 ft / 2,597 m 117.41° 113.19° Asphalt 333 ft / 102 m 0 ft / 0 m
30 150 ft / 46 m 8,519 ft / 2,597 m 297.43° 293.21° Asphalt 666 ft / 203 m 0 ft / 0 m

Approach Navaids

Runway Type Ident Frequency Range Bearing (true) Bearing (mag) Slope Elevation
12 Localiser BHS 110.70 MHz 25 nm / 46 km 117.00° 112.78° - 1,709 ft / 521 m (AMSL)
12 Glidescope BHS 110.70 MHz 25 nm / 46 km 117.00° 112.78° 3.20° 1,705 ft / 520 m (AMSL)
12 DME BHS 110.70 MHz 25 nm / 46 km - - - 1,705 ft / 520 m (AMSL)

Popular Alternatives